createdAt,value
2019-01-10T00:00:21.786Z,4.67
2019-01-10T00:02:50.839Z,4.20
2019-01-10T00:05:19.788Z,4.03
2019-01-10T00:07:48.623Z,3.92
2019-01-10T00:10:17.885Z,4.30
2019-01-10T00:12:46.833Z,4.45
2019-01-10T00:15:17.192Z,3.80
2019-01-10T00:17:46.128Z,4.40
2019-01-10T00:20:16.814Z,3.80
2019-01-10T00:22:45.788Z,4.42
2019-01-10T00:25:14.768Z,4.28
2019-01-10T00:27:43.723Z,3.90
2019-01-10T00:30:15.401Z,4.15
2019-01-10T00:32:44.285Z,3.50
2019-01-10T00:35:13.473Z,3.90
2019-01-10T00:37:42.527Z,3.72
2019-01-10T00:40:12.913Z,3.50
2019-01-10T00:42:49.161Z,4.17
2019-01-10T00:45:14.669Z,3.70
2019-01-10T00:47:43.906Z,4.05
2019-01-10T00:50:15.423Z,4.00
2019-01-10T00:52:44.397Z,3.60
2019-01-10T00:55:13.607Z,4.15
2019-01-10T00:57:42.614Z,4.22
2019-01-10T01:00:20.615Z,4.20
2019-01-10T01:02:49.875Z,4.20
2019-01-10T01:05:20.305Z,4.00
2019-01-10T01:07:49.201Z,3.98
2019-01-10T01:10:20.464Z,4.00
2019-01-10T01:12:58.066Z,4.25
2019-01-10T01:15:20.741Z,4.45
2019-01-10T01:17:49.705Z,4.40
2019-01-10T01:20:20.213Z,4.20
2019-01-10T01:22:49.195Z,4.60
2019-01-10T01:25:18.187Z,4.30
2019-01-10T01:27:47.140Z,4.30
2019-01-10T01:30:18.054Z,4.10
2019-01-10T01:32:47.028Z,4.80
2019-01-10T01:35:16.868Z,4.50
2019-01-10T01:37:45.945Z,4.70
2019-01-10T01:40:16.997Z,4.40
2019-01-10T01:42:46.244Z,4.70
2019-01-10T01:45:16.882Z,4.30
2019-01-10T01:47:46.357Z,4.50
2019-01-10T01:50:17.544Z,4.10
2019-01-10T01:52:46.505Z,4.60
2019-01-10T01:55:16.107Z,4.65
2019-01-10T01:57:45.033Z,4.53
2019-01-10T02:00:16.895Z,4.50
2019-01-10T02:02:46.238Z,4.33
2019-01-10T02:05:15.762Z,4.70
2019-01-10T02:07:44.750Z,4.20
2019-01-10T02:10:17.569Z,3.90
2019-01-10T02:12:46.896Z,4.30
2019-01-10T02:15:16.355Z,4.10
2019-01-10T02:17:49.130Z,4.40
2019-01-10T02:20:16.066Z,4.33
2019-01-10T02:22:45.249Z,4.60
2019-01-10T02:25:14.555Z,4.20
2019-01-10T02:27:43.573Z,4.45
2019-01-10T02:30:23.654Z,4.33
2019-01-10T02:32:52.642Z,4.30
2019-01-10T02:35:21.899Z,4.35
2019-01-10T02:37:50.878Z,4.90
2019-01-10T02:40:19.885Z,4.25
2019-01-10T02:42:48.890Z,4.22
2019-01-10T02:45:18.005Z,4.40
2019-01-10T02:47:47.003Z,4.47
2019-01-10T02:50:21.440Z,4.45
2019-01-10T02:52:51.086Z,4.50
2019-01-10T02:55:20.109Z,4.20
2019-01-10T02:57:49.090Z,4.40
2019-01-10T03:00:22.836Z,4.22
2019-01-10T03:02:52.398Z,4.40
2019-01-10T03:05:21.513Z,4.50
2019-01-10T03:07:50.769Z,4.65
2019-01-10T03:10:22.306Z,5.10
2019-01-10T03:12:51.625Z,4.50
2019-01-10T03:15:20.613Z,4.67
2019-01-10T03:17:49.613Z,5.05
2019-01-10T03:20:20.401Z,4.65
2019-01-10T03:22:49.321Z,4.67
2019-01-10T03:25:18.366Z,5.00
2019-01-10T03:27:47.777Z,4.80
2019-01-10T03:30:18.015Z,4.65
2019-01-10T03:32:47.193Z,4.87
2019-01-10T03:35:16.266Z,4.95
2019-01-10T03:37:45.224Z,5.00
2019-01-10T03:40:17.156Z,5.62
2019-01-10T03:42:46.471Z,5.28
2019-01-10T03:45:16.893Z,6.28
2019-01-10T03:47:46.431Z,6.10
2019-01-10T03:50:16.194Z,5.87
2019-01-10T03:52:45.161Z,6.00
2019-01-10T03:55:14.490Z,5.35
2019-01-10T03:57:43.504Z,5.17
2019-01-10T04:00:18.346Z,5.33
2019-01-10T04:02:47.309Z,4.90
2019-01-10T04:05:16.297Z,5.50
2019-01-10T04:07:45.258Z,4.92
2019-01-10T04:10:14.377Z,4.93
2019-01-10T04:12:43.670Z,4.83
2019-01-10T04:15:12.741Z,4.80
2019-01-10T04:17:41.724Z,5.33
2019-01-10T04:20:11.983Z,5.17
2019-01-10T04:22:40.961Z,5.40
2019-01-10T04:25:09.942Z,4.73
2019-01-10T04:27:38.902Z,4.90
2019-01-10T04:30:10.497Z,5.30
2019-01-10T04:32:39.649Z,6.85
2019-01-10T04:35:08.666Z,6.15
2019-01-10T04:37:37.578Z,6.70
2019-01-10T04:40:08.011Z,5.40
2019-01-10T04:42:36.989Z,5.42
2019-01-10T04:45:06.973Z,11.60
2019-01-10T04:47:35.913Z,9.50
2019-01-10T04:50:05.618Z,14.60
2019-01-10T04:52:34.601Z,5.60
2019-01-10T04:55:03.595Z,20.00
2019-01-10T04:57:32.586Z,11.40
2019-01-10T05:00:01.687Z,10.03
2019-01-10T05:02:30.833Z,5.70
2019-01-10T05:05:01.785Z,5.63
2019-01-10T05:07:30.605Z,5.50
2019-01-10T05:09:59.506Z,5.40
2019-01-10T05:12:28.757Z,4.40
2019-01-10T05:14:57.585Z,4.60
2019-01-10T05:17:26.842Z,5.40
2019-01-10T05:19:55.901Z,5.00
2019-01-10T05:22:25.143Z,5.33
2019-01-10T05:24:54.450Z,4.92
2019-01-10T05:27:23.461Z,5.70
2019-01-10T05:29:52.382Z,5.75
2019-01-10T05:32:21.364Z,5.55
2019-01-10T05:34:50.307Z,5.60
2019-01-10T05:37:19.301Z,5.50
2019-01-10T05:39:48.279Z,5.20
2019-01-10T05:42:17.445Z,5.20
2019-01-10T05:44:46.301Z,5.50
2019-01-10T05:47:15.154Z,5.20
2019-01-10T05:49:44.055Z,5.20
2019-01-10T05:52:12.985Z,6.05
2019-01-10T05:54:41.825Z,5.70
2019-01-10T05:57:10.809Z,5.40
2019-01-10T05:59:39.650Z,4.90
2019-01-10T06:02:08.644Z,5.05
2019-01-10T06:04:37.638Z,5.00
2019-01-10T06:07:06.547Z,4.90
2019-01-10T06:09:35.830Z,4.42
2019-01-10T06:12:04.925Z,4.90
2019-01-10T06:14:35.792Z,4.90
2019-01-10T06:17:04.690Z,5.13
2019-01-10T06:19:33.938Z,4.70
2019-01-10T06:22:02.950Z,4.90
2019-01-10T06:24:31.838Z,4.70
2019-01-10T06:27:00.754Z,4.40
2019-01-10T06:29:29.754Z,4.53
2019-01-10T06:31:58.974Z,4.70
2019-01-10T06:34:27.919Z,4.67
2019-01-10T06:36:57.160Z,4.90
2019-01-10T06:39:26.017Z,4.33
2019-01-10T06:41:55.003Z,4.17
2019-01-10T06:44:44.749Z,4.10
2019-01-10T06:47:13.817Z,4.17
2019-01-10T06:49:43.453Z,3.80
2019-01-10T06:52:12.652Z,3.75
2019-01-10T06:54:41.561Z,4.00
2019-01-10T06:57:10.481Z,3.60
2019-01-10T06:59:39.385Z,3.77
2019-01-10T07:02:08.305Z,3.90
2019-01-10T07:04:37.305Z,3.70
2019-01-10T07:07:06.294Z,4.00
2019-01-10T07:09:35.300Z,3.90
2019-01-10T07:12:04.383Z,4.15
2019-01-10T07:14:33.373Z,3.75
2019-01-10T07:17:02.299Z,3.60
2019-01-10T07:19:47.406Z,3.58
2019-01-10T07:22:19.804Z,3.58
2019-01-10T07:24:56.002Z,3.80
2019-01-10T07:27:25.132Z,3.70
2019-01-10T07:29:55.538Z,4.05
2019-01-10T07:32:24.535Z,3.90
2019-01-10T07:34:59.602Z,3.67
2019-01-10T07:37:29.045Z,4.00
2019-01-10T07:39:58.653Z,3.92
2019-01-10T07:42:33.917Z,3.90
2019-01-10T07:45:07.947Z,3.92
2019-01-10T07:47:52.427Z,4.10
2019-01-10T07:50:42.591Z,4.10
2019-01-10T07:53:11.585Z,3.62
2019-01-10T07:55:41.178Z,4.78
2019-01-10T07:58:10.186Z,4.30
2019-01-10T08:00:39.197Z,4.12
2019-01-10T08:03:08.881Z,3.80
2019-01-10T08:05:38.114Z,3.27
2019-01-10T08:08:08.462Z,3.30
2019-01-10T08:10:37.764Z,3.40
2019-01-10T08:13:07.559Z,3.20
2019-01-10T08:15:36.529Z,3.35
2019-01-10T08:18:05.837Z,3.20
2019-01-10T08:20:34.901Z,3.30
2019-01-10T08:23:03.985Z,3.27
2019-01-10T08:25:33.277Z,3.40
2019-01-10T08:28:03.038Z,3.00
2019-01-10T08:30:32.009Z,3.10
2019-01-10T08:33:01.290Z,3.00
2019-01-10T08:35:30.695Z,3.08
2019-01-10T08:37:59.639Z,2.80
2019-01-10T08:40:28.656Z,3.25
2019-01-10T08:42:57.926Z,2.90
2019-01-10T08:45:26.930Z,3.20
2019-01-10T08:47:55.934Z,2.65
2019-01-10T08:50:26.046Z,2.90
2019-01-10T08:52:55.371Z,2.80
2019-01-10T08:55:24.362Z,3.00
2019-01-10T08:57:53.375Z,2.80
2019-01-10T09:00:23.661Z,3.10
2019-01-10T09:02:52.870Z,2.60
2019-01-10T09:05:21.878Z,3.27
2019-01-10T09:07:51.054Z,2.90
2019-01-10T09:10:25.545Z,2.60
2019-01-10T09:12:54.529Z,2.85
2019-01-10T09:15:33.733Z,2.83
2019-01-10T09:17:54.238Z,3.08
2019-01-10T09:20:23.222Z,2.70
2019-01-10T09:22:52.205Z,3.10
2019-01-10T09:25:21.181Z,2.60
2019-01-10T09:27:50.565Z,3.00
2019-01-10T09:30:21.264Z,3.20
2019-01-10T09:32:50.342Z,3.10
2019-01-10T09:35:19.406Z,3.37
2019-01-10T09:37:48.519Z,3.47
2019-01-10T09:40:19.058Z,3.17
2019-01-10T09:42:48.073Z,3.55
2019-01-10T09:45:19.241Z,2.80
2019-01-10T09:47:48.475Z,3.27
2019-01-10T09:50:18.269Z,2.80
2019-01-10T09:52:47.633Z,3.25
2019-01-10T09:55:16.994Z,2.75
2019-01-10T09:57:45.991Z,2.90
2019-01-10T10:00:18.317Z,2.75
2019-01-10T10:02:47.561Z,2.90
2019-01-10T10:05:16.797Z,2.60
2019-01-10T10:07:45.885Z,2.67
2019-01-10T10:10:16.732Z,2.80
2019-01-10T10:12:46.041Z,2.47
2019-01-10T10:15:15.541Z,2.97
2019-01-10T10:17:44.525Z,2.92
2019-01-10T10:20:16.088Z,2.90
2019-01-10T10:22:45.107Z,3.10
2019-01-10T10:25:14.113Z,2.80
2019-01-10T10:27:43.122Z,2.75
2019-01-10T10:30:14.914Z,2.90
2019-01-10T10:32:44.173Z,2.98
2019-01-10T10:35:13.290Z,2.85
2019-01-10T10:37:42.324Z,3.00
2019-01-10T10:40:21.749Z,3.27
2019-01-10T10:42:51.533Z,3.62
2019-01-10T10:45:21.655Z,3.20
2019-01-10T10:47:50.701Z,3.40
2019-01-10T10:50:25.401Z,3.30
2019-01-10T10:52:54.408Z,3.50
2019-01-10T10:55:23.410Z,3.20
2019-01-10T10:57:52.446Z,3.22
2019-01-10T11:00:24.218Z,3.15
2019-01-10T11:02:53.213Z,3.10
2019-01-10T11:05:22.808Z,3.00
2019-01-10T11:07:51.749Z,3.15
2019-01-10T11:10:21.090Z,3.08
2019-01-10T11:12:50.465Z,2.67
2019-01-10T11:15:19.457Z,3.07
2019-01-10T11:17:49.042Z,2.90
2019-01-10T11:20:20.328Z,3.10
2019-01-10T11:22:49.493Z,2.98
2019-01-10T11:25:20.889Z,2.98
2019-01-10T11:27:49.942Z,2.42
2019-01-10T11:30:19.269Z,2.65
2019-01-10T11:32:48.527Z,2.30
2019-01-10T11:35:17.521Z,2.65
2019-01-10T11:37:46.523Z,2.80
2019-01-10T11:40:18.157Z,2.77
2019-01-10T11:42:47.317Z,2.37
2019-01-10T11:45:18.201Z,2.65
2019-01-10T11:47:47.206Z,2.50
2019-01-10T11:50:16.481Z,2.30
2019-01-10T11:52:45.658Z,3.00
2019-01-10T11:55:14.834Z,2.50
2019-01-10T11:57:44.332Z,2.60
2019-01-10T12:00:19.832Z,2.10
2019-01-10T12:02:48.818Z,2.50
2019-01-10T12:05:18.037Z,2.30
2019-01-10T12:07:47.323Z,2.80
2019-01-10T12:10:16.371Z,2.75
2019-01-10T12:12:45.638Z,2.20
2019-01-10T12:15:14.717Z,2.62
2019-01-10T12:17:43.715Z,2.62
2019-01-10T12:20:13.596Z,2.50
2019-01-10T12:22:42.577Z,2.40
2019-01-10T12:25:12.842Z,2.70
2019-01-10T12:27:42.147Z,3.10
2019-01-10T12:30:14.701Z,2.70
2019-01-10T12:32:43.709Z,2.83
2019-01-10T12:35:13.005Z,2.60
2019-01-10T12:37:42.281Z,3.10
2019-01-10T12:40:11.849Z,3.87
2019-01-10T12:42:40.855Z,3.00
2019-01-10T12:45:29.240Z,3.20
2019-01-10T12:47:58.257Z,2.98
2019-01-10T12:50:31.793Z,2.80
2019-01-10T12:53:07.862Z,2.95
2019-01-10T12:55:37.066Z,3.10
2019-01-10T12:58:06.867Z,2.60
2019-01-10T13:00:36.137Z,2.80
2019-01-10T13:03:05.124Z,2.30
2019-01-10T13:05:34.376Z,3.00
2019-01-10T13:08:04.109Z,2.70
2019-01-10T13:10:33.218Z,2.60
2019-01-10T13:13:02.510Z,2.50
2019-01-10T13:15:31.512Z,2.90
2019-01-10T13:18:00.525Z,2.62
2019-01-10T13:20:29.527Z,2.70
2019-01-10T13:22:58.530Z,2.75
2019-01-10T13:25:27.454Z,2.30
2019-01-10T13:27:57.338Z,2.67
2019-01-10T13:30:27.346Z,2.70
2019-01-10T13:32:57.169Z,3.00
2019-01-10T13:35:26.985Z,2.90
2019-01-10T13:37:56.393Z,2.50
2019-01-10T13:40:25.585Z,2.80
2019-01-10T13:42:55.362Z,2.80
2019-01-10T13:45:24.495Z,2.67
2019-01-10T13:47:54.141Z,3.00
2019-01-10T13:50:30.345Z,2.77
2019-01-10T13:52:59.335Z,3.00
2019-01-10T13:55:27.986Z,3.00
2019-01-10T13:57:57.053Z,3.70
2019-01-10T14:00:28.179Z,4.60
2019-01-10T14:02:57.170Z,3.60
2019-01-10T14:05:26.157Z,3.98
2019-01-10T14:07:55.149Z,3.60
2019-01-10T14:10:24.471Z,3.70
2019-01-10T14:12:53.446Z,3.22
2019-01-10T14:15:33.346Z,3.40
2019-01-10T14:18:02.485Z,2.70
2019-01-10T14:20:31.477Z,3.30
2019-01-10T14:23:00.469Z,3.30
2019-01-10T14:25:29.461Z,3.10
2019-01-10T14:27:59.617Z,3.12
2019-01-10T14:30:38.412Z,3.10
2019-01-10T14:33:12.297Z,3.20
2019-01-10T14:35:41.460Z,2.70
2019-01-10T14:38:11.116Z,3.22
2019-01-10T14:40:40.138Z,3.52
2019-01-10T14:43:09.550Z,3.30
2019-01-10T14:45:39.527Z,2.90
2019-01-10T14:48:08.846Z,3.00
2019-01-10T14:50:37.843Z,2.90
2019-01-10T14:53:07.323Z,3.10
2019-01-10T14:55:37.990Z,2.90
2019-01-10T14:58:07.096Z,3.05
2019-01-10T15:00:36.197Z,2.90
2019-01-10T15:03:05.210Z,3.10
2019-01-10T15:05:34.802Z,3.22
2019-01-10T15:08:04.802Z,2.70
2019-01-10T15:10:33.945Z,3.00
2019-01-10T15:13:02.931Z,2.72
2019-01-10T15:15:32.222Z,3.10
2019-01-10T15:18:01.130Z,3.08
2019-01-10T15:20:31.701Z,2.90
2019-01-10T15:23:00.686Z,3.10
2019-01-10T15:25:29.676Z,3.35
2019-01-10T15:27:58.657Z,3.25
2019-01-10T15:30:28.517Z,3.30
2019-01-10T15:32:57.528Z,3.42
2019-01-10T15:35:26.897Z,3.50
2019-01-10T15:37:55.897Z,3.10
2019-01-10T15:40:30.548Z,3.00
2019-01-10T15:43:00.210Z,3.35
2019-01-10T15:45:29.210Z,3.47
2019-01-10T15:47:58.213Z,3.40
2019-01-10T15:50:27.198Z,3.50
2019-01-10T15:52:57.062Z,3.10
2019-01-10T15:55:26.421Z,3.12
2019-01-10T15:57:55.417Z,3.20
2019-01-10T16:00:24.718Z,3.20
2019-01-10T16:02:53.729Z,3.80
2019-01-10T16:05:22.729Z,3.62
2019-01-10T16:07:51.710Z,3.75
2019-01-10T16:10:21.070Z,3.90
2019-01-10T16:12:50.141Z,3.80
2019-01-10T16:15:21.050Z,3.90
2019-01-10T16:17:50.254Z,3.90
2019-01-10T16:20:19.333Z,3.80
2019-01-10T16:22:48.437Z,4.17
2019-01-10T16:25:17.665Z,4.53
2019-01-10T16:27:47.021Z,4.00
2019-01-10T16:30:23.821Z,4.50
2019-01-10T16:32:52.844Z,6.10
2019-01-10T16:35:21.878Z,6.25
2019-01-10T16:37:50.866Z,5.93
2019-01-10T16:40:19.955Z,4.70
2019-01-10T16:42:48.894Z,4.50
2019-01-10T16:45:23.420Z,4.60
2019-01-10T16:47:52.677Z,4.50
2019-01-10T16:50:21.645Z,5.00
2019-01-10T16:52:50.637Z,4.80
2019-01-10T16:55:19.893Z,4.60
2019-01-10T16:57:48.901Z,4.50
2019-01-10T17:00:24.133Z,4.33
2019-01-10T17:02:53.366Z,5.00
2019-01-10T17:05:22.357Z,4.40
2019-01-10T17:07:51.465Z,4.53
2019-01-10T17:10:21.106Z,4.30
2019-01-10T17:12:50.105Z,4.00
2019-01-10T17:15:19.366Z,4.15
2019-01-10T17:17:48.474Z,4.72
2019-01-10T17:20:19.345Z,4.30
2019-01-10T17:22:48.342Z,4.22
2019-01-10T17:25:17.541Z,3.70
2019-01-10T17:27:47.105Z,4.47
2019-01-10T17:30:24.843Z,4.43
2019-01-10T17:32:53.889Z,3.42
2019-01-10T17:35:25.033Z,3.40
2019-01-10T17:37:54.241Z,3.42
2019-01-10T17:40:24.251Z,3.50
2019-01-10T17:42:53.501Z,3.08
2019-01-10T17:45:24.408Z,3.33
2019-01-10T17:47:53.392Z,3.75
2019-01-10T17:50:22.385Z,3.58
2019-01-10T17:52:51.638Z,3.72
2019-01-10T17:55:20.677Z,3.67
2019-01-10T17:57:49.661Z,3.40
2019-01-10T18:00:21.646Z,3.00
2019-01-10T18:02:50.713Z,3.40
2019-01-10T18:05:19.722Z,3.75
2019-01-10T18:07:48.722Z,4.12
2019-01-10T18:10:19.558Z,3.87
2019-01-10T18:12:48.697Z,3.70
2019-01-10T18:15:19.588Z,4.53
2019-01-10T18:17:50.348Z,5.20
2019-01-10T18:20:22.189Z,5.50
2019-01-10T18:22:51.176Z,5.80
2019-01-10T18:25:20.157Z,5.17
2019-01-10T18:27:49.827Z,5.30
2019-01-10T18:30:20.709Z,4.85
2019-01-10T18:32:49.756Z,5.12
2019-01-10T18:35:18.965Z,5.40
2019-01-10T18:37:48.301Z,5.12
2019-01-10T18:40:17.500Z,4.90
2019-01-10T18:42:46.492Z,5.10
2019-01-10T18:45:21.221Z,4.60
2019-01-10T18:47:56.708Z,5.08
2019-01-10T18:50:22.781Z,5.13
2019-01-10T18:53:10.902Z,5.50
2019-01-10T18:55:59.277Z,5.50
2019-01-10T19:04:48.207Z,5.72
2019-01-10T19:07:36.319Z,6.28
2019-01-10T19:10:24.530Z,6.15
2019-01-10T19:13:12.641Z,5.90
2019-01-10T19:16:00.749Z,5.95
2019-01-10T19:18:50.171Z,6.20
2019-01-10T19:24:32.434Z,6.17
2019-01-10T19:27:20.565Z,6.30
2019-01-10T19:30:27.786Z,5.83
2019-01-10T19:33:15.893Z,6.00
2019-01-10T19:35:56.854Z,21.80
2019-01-10T19:38:37.566Z,13.45
2019-01-10T19:41:18.333Z,6.40
2019-01-10T19:43:59.067Z,6.20
2019-01-10T19:46:40.113Z,6.00
2019-01-10T19:49:20.642Z,6.80
2019-01-10T19:51:59.858Z,5.75
2019-01-10T19:54:47.957Z,5.27
2019-01-10T19:57:36.070Z,5.73
2019-01-10T20:00:43.282Z,5.67
2019-01-10T20:03:31.634Z,5.43
2019-01-10T20:06:19.733Z,5.53
2019-01-10T20:09:08.449Z,5.62
2019-01-10T20:11:56.505Z,5.55
2019-01-10T20:14:44.625Z,5.40
2019-01-10T20:23:41.145Z,5.20
2019-01-10T20:35:18.346Z,5.00
2019-01-10T20:37:59.180Z,4.47
2019-01-10T20:40:39.969Z,4.00
2019-01-10T20:43:20.684Z,4.10
2019-01-10T20:46:01.377Z,4.70
2019-01-10T20:48:42.663Z,3.87
2019-01-10T20:51:23.114Z,4.17
2019-01-10T20:54:04.142Z,4.00
2019-01-10T20:56:45.558Z,3.50
2019-01-10T20:59:26.396Z,3.50
2019-01-10T21:02:06.806Z,3.90
2019-01-10T21:04:47.550Z,3.70
2019-01-10T21:07:29.410Z,4.47
2019-01-10T21:10:10.010Z,4.50
2019-01-10T21:12:50.530Z,4.60
2019-01-10T21:15:31.516Z,6.35
2019-01-10T21:18:12.638Z,4.30
2019-01-10T21:20:53.220Z,4.40
2019-01-10T21:23:33.959Z,4.25
2019-01-10T21:26:14.806Z,4.40
2019-01-10T21:28:55.525Z,4.37
2019-01-10T21:31:36.804Z,4.00
2019-01-10T21:34:06.687Z,3.55
2019-01-10T21:36:47.586Z,3.72
2019-01-10T21:39:28.628Z,3.80
2019-01-10T21:42:09.691Z,3.90
2019-01-10T21:47:34.421Z,3.83
2019-01-10T21:50:24.096Z,3.98
2019-01-10T21:52:54.337Z,4.07
2019-01-10T21:58:36.556Z,3.70
2019-01-10T22:04:18.500Z,4.22
2019-01-10T22:07:06.858Z,3.90
2019-01-10T22:09:54.986Z,4.00
2019-01-10T22:12:43.127Z,4.17
2019-01-10T22:18:24.757Z,3.77
2019-01-10T22:21:12.874Z,3.90
2019-01-10T22:24:01.443Z,4.30
2019-01-10T22:26:49.584Z,3.87
2019-01-10T22:29:37.691Z,3.50
2019-01-10T22:32:26.057Z,3.70
2019-01-10T22:38:29.551Z,4.40
2019-01-10T22:41:17.667Z,4.20
2019-01-10T22:44:05.949Z,4.40
2019-01-10T22:46:54.329Z,4.67
2019-01-10T22:49:42.433Z,4.00
2019-01-10T22:55:29.333Z,4.35
2019-01-10T22:58:17.430Z,4.00
2019-01-10T23:01:43.718Z,4.40
2019-01-10T23:04:37.537Z,3.80
2019-01-10T23:10:20.750Z,4.40
2019-01-10T23:13:09.558Z,4.28
2019-01-10T23:15:57.661Z,4.20
2019-01-10T23:18:45.770Z,4.22
2019-01-10T23:24:31.598Z,4.25
2019-01-10T23:27:19.720Z,4.90
2019-01-10T23:30:08.189Z,4.50
2019-01-10T23:33:16.842Z,4.80
2019-01-10T23:35:57.242Z,4.80
2019-01-10T23:38:37.709Z,4.58
2019-01-10T23:41:18.561Z,4.20
2019-01-10T23:43:59.334Z,4.60
2019-01-10T23:46:39.985Z,4.92
2019-01-10T23:49:20.728Z,4.40
2019-01-10T23:52:01.985Z,4.40
2019-01-10T23:54:42.973Z,4.55
2019-01-10T23:57:23.777Z,5.00
